Time;durP1;ratioP1;P1;durP2;ratioP2;P2;SDS_P1;SDS_P2;PMS_P1;PMS_P2;Temp;Humidity;BMP_temperature;BMP_pressure;BME280_temperature;BME280_humidity;BME280_pressure;Samples;Min_cycle;Max_cycle;Signal;HPM_P1;HPM_P2
2022/11/11 00:01:43;;;;;;;;;2.67;2.67;;;;;22.21;45.05;102770.88;5035488;28;45530;-72
2022/11/11 00:04:08;;;;;;;;;2.00;2.00;;;;;22.11;45.07;102759.41;5035409;28;45249;-71
2022/11/11 00:06:34;;;;;;;;;2.00;1.33;;;;;22.23;44.99;102789.31;5035535;28;45336;-71
2022/11/11 00:08:59;;;;;;;;;2.00;2.00;;;;;22.18;45.14;102787.91;5035365;28;46848;-71
2022/11/11 00:11:24;;;;;;;;;1.00;1.00;;;;;22.12;44.67;102777.81;5036193;28;46198;-71
2022/11/11 00:13:50;;;;;;;;;2.33;2.00;;;;;22.23;45.08;102792.81;5035577;28;45372;-72
2022/11/11 00:16:18;;;;;;;;;1.00;1.00;;;;;22.20;44.93;102779.00;5035041;28;45372;-71
2022/11/11 00:27:05;;;;;;;;;1.00;1.00;;;;;22.14;44.40;102762.66;5034909;28;45442;-72
2022/11/11 00:29:30;;;;;;;;;3.00;2.00;;;;;22.23;44.39;102778.69;5034730;28;46071;-71
2022/11/11 00:34:39;;;;;;;;;1.00;1.00;;;;;22.24;44.56;102791.00;5034993;28;45386;-72
2022/11/11 00:37:05;;;;;;;;;1.33;1.33;;;;;22.24;44.59;102780.38;5021226;28;45480;-71
2022/11/11 00:39:30;;;;;;;;;1.67;1.67;;;;;22.23;44.63;102776.91;5034929;28;47321;-71
2022/11/11 00:41:55;;;;;;;;;2.00;2.00;;;;;22.24;44.44;102775.94;5034658;28;45268;-71
2022/11/11 00:44:21;;;;;;;;;2.00;2.00;;;;;22.23;44.92;102768.94;5034927;28;45201;-72
2022/11/11 00:52:14;;;;;;;;;1.67;1.67;;;;;22.21;44.54;102770.88;5038100;28;45365;-71
2022/11/11 00:54:39;;;;;;;;;1.33;1.33;;;;;22.22;44.50;102771.75;5037895;28;45359;-71
2022/11/11 00:57:04;;;;;;;;;2.00;2.00;;;;;22.22;44.64;102785.84;5038034;28;45526;-70
2022/11/11 00:59:30;;;;;;;;;1.67;1.67;;;;;22.22;44.76;102785.84;5040967;28;45277;-70
2022/11/11 01:01:55;;;;;;;;;1.00;1.00;;;;;22.11;44.53;102759.41;5043713;28;45271;-71
2022/11/11 01:04:21;;;;;;;;;1.00;1.00;;;;;22.16;44.93;102775.75;5042433;28;45422;-71
2022/11/11 01:06:47;;;;;;;;;1.00;1.00;;;;;22.22;44.87;102777.03;5043531;28;45411;-72
2022/11/11 01:09:12;;;;;;;;;2.33;1.33;;;;;22.20;44.27;102771.03;5039471;28;45390;-71
2022/11/11 01:11:37;;;;;;;;;3.00;1.33;;;;;22.22;44.59;102775.22;5038338;28;45526;-70
2022/11/11 01:14:03;;;;;;;;;1.67;1.00;;;;;22.22;44.82;102777.88;5037899;28;45415;-71
2022/11/11 01:16:28;;;;;;;;;1.67;1.00;;;;;22.17;44.90;102775.63;5034593;28;46462;-71
2022/11/11 01:18:54;;;;;;;;;2.00;2.00;;;;;22.21;44.95;102786.81;5037684;28;45501;-71
2022/11/11 01:21:22;;;;;;;;;1.00;1.00;;;;;22.21;44.50;102780.66;5037903;28;45459;-71
2022/11/11 01:23:49;;;;;;;;;2.00;2.00;;;;;22.21;44.89;102778.84;5037931;28;45253;-72
2022/11/11 01:26:16;;;;;;;;;0.00;0.00;;;;;22.21;44.89;102794.75;5037882;28;45320;-71
2022/11/11 01:28:41;;;;;;;;;2.00;2.00;;;;;22.12;44.72;102777.00;5037327;28;46866;-71
2022/11/11 01:31:10;;;;;;;;;2.00;2.00;;;;;22.15;44.86;102782.88;5036507;28;45438;-71
2022/11/11 01:33:36;;;;;;;;;1.33;1.33;;;;;22.20;44.95;102795.72;5037881;28;45312;-71
2022/11/11 01:36:07;;;;;;;;;1.33;1.33;;;;;22.21;44.51;102799.22;5026330;28;45500;-70
2022/11/11 01:38:33;;;;;;;;;2.00;2.00;;;;;22.19;44.88;102794.06;5035483;28;47232;-72
2022/11/11 01:40:59;;;;;;;;;2.00;2.00;;;;;22.21;44.38;102791.25;5037525;28;45483;-71
2022/11/11 01:43:24;;;;;;;;;2.67;2.00;;;;;22.20;44.60;102787.75;5037352;28;45372;-71
2022/11/11 01:46:03;;;;;;;;;2.00;2.00;;;;;22.22;44.37;102787.66;5037761;28;45381;-71
2022/11/11 01:51:48;;;;;;;;;3.00;1.00;;;;;22.21;44.81;102784.16;5037610;28;45473;-70
2022/11/11 01:54:40;;;;;;;;;2.00;2.00;;;;;22.23;44.92;102776.03;5037526;28;45453;-70
2022/11/11 01:57:19;;;;;;;;;2.00;2.00;;;;;22.21;44.40;102773.53;5036852;28;45429;-71
2022/11/11 01:59:47;;;;;;;;;1.67;1.67;;;;;22.21;44.51;102776.19;5036901;28;45368;-71
2022/11/11 02:02:29;;;;;;;;;2.67;1.33;;;;;22.21;44.27;102778.84;5036546;28;45391;-71
2022/11/11 02:07:40;;;;;;;;;1.67;1.67;;;;;22.10;44.70;102763.88;5043477;28;45562;-71
2022/11/11 02:10:07;;;;;;;;;2.00;2.00;;;;;22.18;44.69;102763.19;5037196;28;45406;-72
2022/11/11 02:15:17;;;;;;;;;2.00;2.00;;;;;22.20;44.92;102763.91;5037379;28;45360;-71
2022/11/11 02:17:46;;;;;;;;;1.00;1.00;;;;;22.20;44.35;102777.16;5036564;28;45414;-69
2022/11/11 02:20:17;;;;;;;;;1.00;1.00;;;;;22.16;44.71;102763.34;5036791;28;45448;-71
2022/11/11 02:22:52;;;;;;;;;1.67;1.67;;;;;22.20;44.77;102765.72;5036986;28;45292;-71
2022/11/11 02:25:21;;;;;;;;;1.00;1.00;;;;;22.20;44.27;102779.00;5036838;28;45498;-70
2022/11/11 02:27:50;;;;;;;;;2.00;2.00;;;;;22.14;44.48;102764.44;5036215;28;45472;-70
2022/11/11 02:30:18;;;;;;;;;2.33;1.00;;;;;22.18;44.70;102769.34;5036796;28;45483;-71
2022/11/11 02:32:51;;;;;;;;;1.00;1.00;;;;;22.00;44.54;102744.44;5035235;28;46154;-71
2022/11/11 02:35:44;;;;;;;;;2.00;1.00;;;;;22.07;44.70;102758.81;5031725;28;45252;-71
2022/11/11 02:38:10;;;;;;;;;2.00;2.00;;;;;22.18;44.27;102772.00;5028471;28;45360;-71
2022/11/11 02:43:28;;;;;;;;;1.00;1.00;;;;;22.06;44.25;102747.41;4993965;28;45414;-71
2022/11/11 02:45:53;;;;;;;;;0.00;0.00;;;;;22.16;44.33;102770.47;4994561;28;45407;-72
2022/11/11 02:48:19;;;;;;;;;2.00;2.00;;;;;22.18;44.67;102771.16;4994125;28;45631;-71
2022/11/11 02:50:44;;;;;;;;;1.00;1.00;;;;;22.16;44.85;102771.31;4994349;28;46039;-71
2022/11/11 02:53:10;;;;;;;;;1.00;1.00;;;;;22.10;44.51;102768.31;4994294;28;45429;-71
2022/11/11 02:55:35;;;;;;;;;1.33;1.00;;;;;22.12;44.83;102769.88;4994106;28;45455;-71
2022/11/11 02:58:01;;;;;;;;;2.00;1.67;;;;;22.07;44.59;102767.63;4994401;28;45287;-71
2022/11/11 03:00:26;;;;;;;;;1.00;1.00;;;;;22.15;44.48;102774.91;4994276;28;47067;-71
2022/11/11 03:02:51;;;;;;;;;3.00;1.00;;;;;22.16;44.82;102767.81;4994205;28;45397;-71
2022/11/11 03:05:17;;;;;;;;;2.00;1.00;;;;;22.15;44.89;102774.91;4994301;28;45426;-72
2022/11/11 03:07:43;;;;;;;;;1.00;1.00;;;;;22.14;44.41;102775.91;4993970;28;45363;-71
2022/11/11 03:10:08;;;;;;;;;1.67;1.67;;;;;22.12;44.51;102761.91;4994276;28;45289;-71
2022/11/11 03:12:34;;;;;;;;;2.00;2.00;;;;;22.14;44.80;102760.00;4994050;28;45397;-71
2022/11/11 03:14:59;;;;;;;;;2.33;2.33;;;;;22.16;44.30;102757.19;4994303;28;45650;-71
2022/11/11 03:17:40;;;;;;;;;1.00;1.00;;;;;22.15;44.85;102753.69;4994115;28;45330;-71
2022/11/11 03:23:06;;;;;;;;;2.00;0.33;;;;;22.16;44.23;102758.03;5035728;28;45458;-71
2022/11/11 03:25:38;;;;;;;;;1.00;1.00;;;;;22.11;44.65;102747.00;5035714;28;45429;-71
2022/11/11 03:28:05;;;;;;;;;1.67;1.67;;;;;22.18;44.67;102763.19;5016184;28;45282;-71
2022/11/11 03:30:31;;;;;;;;;1.33;1.33;;;;;22.14;44.35;102762.66;5016061;28;46802;-71
2022/11/11 03:32:58;;;;;;;;;1.33;1.33;;;;;22.03;44.87;102742.38;5015824;28;45289;-71
2022/11/11 03:35:23;;;;;;;;;2.00;1.00;;;;;22.17;44.79;102759.69;5010450;28;45429;-71
2022/11/11 03:40:32;;;;;;;;;2.00;2.00;;;;;22.17;44.75;102774.78;5016085;28;45918;-71
2022/11/11 03:42:57;;;;;;;;;2.33;1.00;;;;;22.17;44.80;102769.50;5015985;28;45432;-71
2022/11/11 03:45:22;;;;;;;;;1.33;1.33;;;;;22.11;44.41;102757.59;5015803;28;45389;-70
2022/11/11 03:47:48;;;;;;;;;0.00;0.00;;;;;22.14;44.35;102761.81;5016102;28;45301;-71
2022/11/11 03:50:13;;;;;;;;;1.00;1.00;;;;;22.18;44.34;102766.69;5015764;28;46972;-71
2022/11/11 03:52:42;;;;;;;;;1.33;1.33;;;;;22.18;44.74;102765.84;5011953;28;52606;-71
2022/11/11 03:55:08;;;;;;;;;3.33;1.00;;;;;22.12;44.38;102753.97;5010436;28;45354;-71
2022/11/11 03:57:33;;;;;;;;;2.00;2.00;;;;;22.17;44.46;102764.19;5011993;28;45402;-71
2022/11/11 03:59:59;;;;;;;;;0.33;0.33;;;;;22.06;44.29;102752.72;5015701;28;46304;-71
2022/11/11 04:10:36;;;;;;;;;1.67;1.67;;;;;22.14;44.29;102781.22;5015677;28;45498;-71
2022/11/11 04:16:06;;;;;;;;;1.00;1.00;;;;;22.13;44.16;102776.03;5015806;28;45470;-71
2022/11/11 04:23:59;;;;;;;;;1.00;1.00;;;;;22.12;44.26;102759.28;5029905;28;45468;-71
2022/11/11 04:26:24;;;;;;;;;2.33;1.00;;;;;22.07;44.66;102746.41;5018313;28;45396;-71
2022/11/11 04:31:34;;;;;;;;;2.00;2.00;;;;;22.07;44.73;102737.63;5025295;28;45402;-71
2022/11/11 04:33:59;;;;;;;;;1.67;1.00;;;;;22.05;44.33;102735.13;5038607;28;45489;-71
2022/11/11 04:36:24;;;;;;;;;0.67;0.67;;;;;22.06;44.28;102736.81;5024347;28;45360;-71
2022/11/11 04:41:33;;;;;;;;;1.00;1.00;;;;;22.11;44.32;102738.22;5038711;28;45511;-71
2022/11/11 04:46:43;;;;;;;;;1.00;1.00;;;;;22.11;44.27;102735.56;5038608;28;45436;-71
2022/11/11 04:49:08;;;;;;;;;2.00;2.00;;;;;22.11;44.76;102732.91;5038432;28;45367;-71
2022/11/11 04:54:17;;;;;;;;;1.67;1.33;;;;;22.12;44.33;102734.59;5038492;28;45449;-71
2022/11/11 04:56:52;;;;;;;;;1.00;1.00;;;;;22.12;44.67;102738.06;5038339;28;45495;-71
2022/11/11 04:59:19;;;;;;;;;1.00;1.00;;;;;22.12;44.79;102746.00;5025552;28;45388;-72
2022/11/11 05:04:29;;;;;;;;;2.00;2.00;;;;;22.12;44.75;102750.50;5027130;28;45558;-72
2022/11/11 05:09:38;;;;;;;;;2.00;2.00;;;;;22.14;44.24;102743.25;5026591;28;45405;-70
2022/11/11 05:12:04;;;;;;;;;0.33;0.33;;;;;22.14;43.99;102748.56;5037958;28;45707;-71
2022/11/11 05:22:42;;;;;;;;;3.00;1.33;;;;;22.02;44.66;102723.94;5037753;28;45753;-71
2022/11/11 05:25:25;;;;;;;;;1.67;1.67;;;;;22.14;44.85;102760.00;5036173;28;45286;-70
2022/11/11 05:27:56;;;;;;;;;1.00;1.00;;;;;22.14;44.54;102753.84;5035672;28;45321;-71
2022/11/11 05:30:23;;;;;;;;;3.00;1.33;;;;;22.13;44.12;102752.16;5037613;28;45523;-71
2022/11/11 05:32:49;;;;;;;;;2.00;0.00;;;;;22.11;44.54;102757.59;5037395;28;45417;-70
2022/11/11 05:35:15;;;;;;;;;1.00;1.00;;;;;22.11;44.67;102759.41;5031823;28;45250;-70
2022/11/11 05:37:42;;;;;;;;;1.33;1.33;;;;;22.07;44.51;102762.31;5028944;28;45387;-71
2022/11/11 05:40:08;;;;;;;;;2.00;0.67;;;;;22.10;44.66;102750.63;5020073;28;45400;-71
2022/11/11 05:42:34;;;;;;;;;2.00;1.67;;;;;22.11;44.11;102760.25;5037200;28;48728;-70
2022/11/11 05:45:02;;;;;;;;;1.67;0.67;;;;;22.11;44.56;102760.25;5037604;28;45367;-70
2022/11/11 05:47:28;;;;;;;;;3.00;1.00;;;;;22.10;44.55;102753.25;5037642;28;45412;-71
2022/11/11 05:49:53;;;;;;;;;2.00;2.00;;;;;22.12;44.05;102761.09;5037249;28;45400;-70
2022/11/11 05:52:18;;;;;;;;;1.67;1.67;;;;;22.12;44.54;102763.75;5037671;28;46189;-71
2022/11/11 05:54:44;;;;;;;;;1.00;1.00;;;;;22.11;44.75;102768.22;5046335;28;45300;-70
2022/11/11 05:57:10;;;;;;;;;0.67;0.67;;;;;22.11;44.06;102760.25;5037557;28;45417;-71
2022/11/11 05:59:36;;;;;;;;;1.00;1.00;;;;;22.11;44.75;102762.06;5037305;28;45407;-71
2022/11/11 06:02:01;;;;;;;;;1.00;1.00;;;;;22.06;44.07;102758.00;5036883;28;45373;-71
2022/11/11 06:04:27;;;;;;;;;1.00;1.00;;;;;22.10;44.26;102761.22;5037073;28;45394;-71
2022/11/11 06:06:53;;;;;;;;;1.67;1.67;;;;;22.07;44.73;102762.31;5037086;28;45324;-70
2022/11/11 06:09:19;;;;;;;;;1.00;1.00;;;;;21.99;44.66;102737.47;5037003;28;45589;-70
2022/11/11 06:11:44;;;;;;;;;3.00;1.00;;;;;22.10;44.49;102758.56;5037029;28;46111;-71
2022/11/11 06:14:09;;;;;;;;;1.00;1.00;;;;;21.99;43.90;102746.25;5021885;28;45407;-71
2022/11/11 06:16:35;;;;;;;;;1.00;1.00;;;;;22.06;44.50;102754.53;5037639;28;45350;-71
2022/11/11 06:19:02;;;;;;;;;2.00;1.00;;;;;22.03;44.48;102755.63;5036672;28;45454;-71
2022/11/11 06:21:29;;;;;;;;;2.67;1.00;;;;;22.07;44.14;102762.31;5036942;28;46199;-71
2022/11/11 06:23:54;;;;;;;;;2.00;2.00;;;;;22.06;44.52;102763.31;5018351;28;45378;-71
2022/11/11 06:26:20;;;;;;;;;3.67;2.00;;;;;22.09;44.67;102771.97;5036815;28;45388;-71
2022/11/11 06:28:52;;;;;;;;;2.00;2.00;;;;;22.07;44.18;102772.94;5044071;28;46001;-71
2022/11/11 06:31:26;;;;;;;;;3.67;2.00;;;;;22.10;44.64;102777.13;5036761;28;46178;-72
2022/11/11 06:33:52;;;;;;;;;0.00;0.00;;;;;22.10;44.63;102779.78;5036442;28;45415;-70
2022/11/11 06:36:19;;;;;;;;;1.00;1.00;;;;;22.11;44.19;102778.81;5023698;28;45275;-71
2022/11/11 06:38:45;;;;;;;;;2.67;1.00;;;;;22.10;44.65;102778.94;5036512;28;45503;-71
2022/11/11 06:41:11;;;;;;;;;1.00;1.00;;;;;22.10;44.51;102782.44;5036496;28;46978;-71
2022/11/11 06:43:41;;;;;;;;;1.00;1.00;;;;;22.12;44.43;102791.09;5036441;28;45763;-71
2022/11/11 06:46:16;;;;;;;;;3.00;2.00;;;;;22.12;44.65;102779.66;5034734;28;45372;-71
2022/11/11 06:48:42;;;;;;;;;0.67;0.67;;;;;22.12;44.17;102785.78;5036951;28;45364;-71
2022/11/11 06:51:10;;;;;;;;;1.00;1.00;;;;;22.14;44.54;102793.63;5035095;28;47133;-70
2022/11/11 06:53:35;;;;;;;;;1.33;1.00;;;;;22.13;44.15;102790.13;5045523;28;45294;-71
2022/11/11 06:56:01;;;;;;;;;0.67;0.67;;;;;22.14;44.60;102783.84;5036545;28;45487;-71
2022/11/11 06:58:26;;;;;;;;;2.00;2.00;;;;;22.14;44.37;102781.22;5036286;28;45255;-71
2022/11/11 07:00:51;;;;;;;;;2.67;1.33;;;;;22.14;44.08;102786.50;5036075;28;45279;-71
2022/11/11 07:03:19;;;;;;;;;1.00;1.00;;;;;22.14;44.07;102783.00;5036558;28;45241;-71
2022/11/11 07:05:45;;;;;;;;;1.67;0.00;;;;;22.13;43.99;102790.13;5036353;28;45464;-71
2022/11/11 07:08:13;;;;;;;;;1.67;1.67;;;;;22.15;43.93;102792.63;5039814;28;45478;-71
2022/11/11 07:10:42;;;;;;;;;1.00;1.00;;;;;22.14;44.02;102797.13;5035983;28;48133;-71
2022/11/11 07:13:07;;;;;;;;;1.00;1.00;;;;;22.14;44.47;102796.25;5035849;28;45413;-72
2022/11/11 07:15:34;;;;;;;;;1.00;1.00;;;;;22.13;44.55;102791.94;5035885;28;45447;-72
2022/11/11 07:18:00;;;;;;;;;1.00;1.00;;;;;22.02;44.01;102783.09;5036254;28;45296;-72
2022/11/11 07:20:25;;;;;;;;;0.67;0.67;;;;;22.16;44.44;102807.56;5036231;28;48356;-71
2022/11/11 07:22:51;;;;;;;;;2.00;1.00;;;;;22.15;44.10;102800.56;5035615;28;45359;-71
2022/11/11 07:25:16;;;;;;;;;1.00;1.00;;;;;22.16;44.45;102800.47;5028621;28;45344;-71
2022/11/11 07:27:41;;;;;;;;;2.00;1.00;;;;;22.16;44.30;102804.91;5035139;28;45457;-71
2022/11/11 07:30:09;;;;;;;;;2.33;0.67;;;;;22.16;44.37;102829.63;5037287;28;47085;-71
2022/11/11 07:32:35;;;;;;;;;1.00;1.00;;;;;22.09;44.28;102812.56;5035895;28;45341;-72
2022/11/11 07:35:01;;;;;;;;;1.00;1.00;;;;;22.16;44.25;102818.19;5033976;28;45442;-70
2022/11/11 07:37:26;;;;;;;;;4.00;1.00;;;;;22.16;44.75;102831.44;5035587;28;45305;-71
2022/11/11 07:39:53;;;;;;;;;1.67;1.00;;;;;22.05;44.37;102812.00;5034837;28;46170;-72
2022/11/11 07:42:19;;;;;;;;;1.00;1.00;;;;;22.15;44.58;102829.75;5033901;28;45372;-70
2022/11/11 07:44:44;;;;;;;;;0.33;0.33;;;;;22.14;44.96;102834.22;5023676;28;45387;-71
2022/11/11 07:47:09;;;;;;;;;2.33;1.33;;;;;22.14;44.27;102836.03;5030004;28;45436;-71
2022/11/11 07:49:35;;;;;;;;;1.33;0.33;;;;;22.15;44.77;102837.69;5032408;28;50728;-71
2022/11/11 07:52:00;;;;;;;;;2.00;0.33;;;;;22.16;44.86;102839.38;5032066;28;45416;-70
2022/11/11 07:54:25;;;;;;;;;0.33;0.33;;;;;22.16;44.61;102842.88;5032517;28;46489;-72
2022/11/11 07:56:51;;;;;;;;;2.00;1.00;;;;;22.16;45.21;102842.03;5033894;28;45487;-71
2022/11/11 07:59:16;;;;;;;;;1.00;1.00;;;;;22.13;45.29;102845.78;5029389;28;46545;-71
2022/11/11 08:01:42;;;;;;;;;1.33;1.00;;;;;22.10;44.64;102851.34;5035109;28;45451;-72
2022/11/11 08:04:07;;;;;;;;;1.67;1.67;;;;;22.12;44.64;102848.59;5027853;28;45508;-71
2022/11/11 08:06:33;;;;;;;;;1.00;1.00;;;;;22.11;45.16;102847.75;5032649;28;45500;-71
2022/11/11 08:08:58;;;;;;;;;2.00;2.00;;;;;22.12;44.79;102845.94;5032118;28;46264;-71
2022/11/11 08:14:07;;;;;;;;;2.00;1.33;;;;;22.13;45.46;102852.91;5030003;28;45336;-71
2022/11/11 08:16:33;;;;;;;;;2.00;1.00;;;;;22.14;45.15;102851.94;5030902;28;45397;-71
2022/11/11 08:18:58;;;;;;;;;4.00;2.00;;;;;22.13;45.36;102851.09;5030225;28;46084;-71
2022/11/11 08:21:24;;;;;;;;;1.00;1.00;;;;;22.14;44.66;102857.25;5029232;28;45459;-71
2022/11/11 08:23:50;;;;;;;;;0.00;0.00;;;;;22.15;45.32;102861.56;5034362;28;45623;-72
2022/11/11 08:26:17;;;;;;;;;1.00;1.00;;;;;22.16;45.15;102866.75;5029463;28;45448;-71
2022/11/11 08:28:43;;;;;;;;;1.00;1.00;;;;;22.15;45.33;102859.75;5029863;28;46489;-71
2022/11/11 08:31:09;;;;;;;;;1.00;1.00;;;;;22.13;45.04;102856.41;5030932;28;45487;-71
2022/11/11 08:33:34;;;;;;;;;1.00;1.00;;;;;22.13;45.24;102855.56;5031983;28;45399;-72
2022/11/11 08:36:01;;;;;;;;;1.00;1.00;;;;;22.16;44.99;102858.78;5031044;28;45423;-71
2022/11/11 08:38:26;;;;;;;;;2.00;0.00;;;;;22.17;45.14;102856.97;5034275;28;45828;-71
2022/11/11 08:40:52;;;;;;;;;2.00;2.00;;;;;22.16;44.60;102844.69;5031352;28;45364;-71
2022/11/11 08:43:18;;;;;;;;;1.00;1.00;;;;;22.17;45.26;102860.44;5030782;28;45277;-72
2022/11/11 08:45:44;;;;;;;;;1.00;1.00;;;;;22.14;44.91;102859.91;5030474;28;45359;-71
2022/11/11 08:48:10;;;;;;;;;1.33;1.33;;;;;22.07;45.17;102854.25;5031840;28;45301;-71
2022/11/11 08:50:39;;;;;;;;;3.00;1.00;;;;;22.16;45.31;102863.25;5029879;28;45255;-70
2022/11/11 08:53:09;;;;;;;;;0.00;0.00;;;;;22.17;45.08;102876.34;5033836;28;45336;-71
2022/11/11 08:55:35;;;;;;;;;2.00;2.00;;;;;22.18;45.21;102866.59;5029890;28;45362;-71
2022/11/11 08:58:04;;;;;;;;;0.33;0.33;;;;;22.16;44.87;102866.75;5031513;28;45338;-71
2022/11/11 09:00:30;;;;;;;;;3.33;0.67;;;;;21.98;45.28;102847.94;5029442;28;45511;-71
2022/11/11 09:03:01;;;;;;;;;2.00;1.00;;;;;22.15;44.96;102873.00;5029612;28;45277;-71
2022/11/11 09:05:26;;;;;;;;;1.33;1.00;;;;;22.13;45.01;102855.56;5029047;28;45290;-70
2022/11/11 09:07:52;;;;;;;;;1.00;1.00;;;;;22.17;45.13;102860.44;5030991;28;45984;-70
2022/11/11 09:10:17;;;;;;;;;1.00;1.00;;;;;22.17;45.29;102871.06;5030037;28;45654;-70
2022/11/11 09:12:42;;;;;;;;;2.00;2.00;;;;;22.18;45.51;102872.75;5035542;28;45474;-70
2022/11/11 09:15:08;;;;;;;;;2.33;1.00;;;;;22.06;45.39;102849.94;5035909;28;45371;-71
2022/11/11 09:17:33;;;;;;;;;1.00;0.33;;;;;22.17;44.94;102867.59;5034098;28;45414;-71
2022/11/11 09:19:58;;;;;;;;;1.00;1.00;;;;;22.17;45.12;102870.25;5028693;28;45407;-72
2022/11/11 09:22:24;;;;;;;;;2.00;0.00;;;;;22.18;45.17;102870.09;5018273;28;45432;-72
2022/11/11 09:24:50;;;;;;;;;1.00;1.00;;;;;22.21;45.57;102865.50;5027942;28;45376;-69
2022/11/11 09:27:16;;;;;;;;;3.00;1.00;;;;;22.24;45.44;102871.38;5020649;28;45487;-69
2022/11/11 09:29:41;;;;;;;;;1.00;1.00;;;;;22.25;45.41;102870.41;5017823;28;45479;-69
2022/11/11 09:32:06;;;;;;;;;0.00;0.00;;;;;22.27;44.80;102870.28;5018165;28;45519;-69
2022/11/11 09:34:31;;;;;;;;;2.00;1.00;;;;;22.28;44.95;102877.25;5019713;28;45377;-69
2022/11/11 09:36:57;;;;;;;;;1.00;1.00;;;;;22.28;45.26;102874.59;5022332;28;46088;-69
2022/11/11 09:39:22;;;;;;;;;0.00;0.00;;;;;22.29;45.09;102868.34;5037675;28;45450;-69
2022/11/11 09:42:00;;;;;;;;;1.00;1.00;;;;;22.30;44.92;102875.31;5037368;28;45391;-69
2022/11/11 09:44:56;;;;;;;;;1.00;1.00;;;;;22.29;45.10;102882.44;5038023;28;45646;-69
2022/11/11 09:47:48;;;;;;;;;2.00;2.00;;;;;22.26;43.83;102874.75;5037560;28;47172;-69
2022/11/11 09:50:20;;;;;;;;;6.00;3.00;;;;;22.20;42.73;102879.75;5037244;28;45626;-69
2022/11/11 09:53:23;;;;;;;;;4.00;3.00;;;;;22.15;42.76;102888.06;5037358;28;45437;-70
2022/11/11 09:55:54;;;;;;;;;2.00;2.00;;;;;22.07;42.64;102875.47;5022505;28;45456;-70
2022/11/11 09:58:34;;;;;;;;;2.00;2.00;;;;;22.03;43.51;102888.16;5037547;28;46151;-69
2022/11/11 10:01:19;;;;;;;;;1.00;1.00;;;;;22.04;43.75;102891.66;5036389;28;45362;-70
2022/11/11 10:03:53;;;;;;;;;1.00;0.67;;;;;22.04;44.00;102896.97;5032437;28;45396;-70
2022/11/11 10:06:23;;;;;;;;;1.00;1.00;;;;;22.04;43.25;102881.06;5037399;28;45462;-70
2022/11/11 10:09:17;;;;;;;;;1.00;1.00;;;;;22.04;43.39;102889.81;5035069;28;47327;-70
2022/11/11 10:12:04;;;;;;;;;1.33;1.33;;;;;22.04;43.64;102883.69;5027947;28;45612;-70
2022/11/11 10:14:37;;;;;;;;;1.67;1.67;;;;;22.01;43.89;102881.31;5037515;28;45609;-69
2022/11/11 10:17:30;;;;;;;;;2.00;2.00;;;;;22.05;43.89;102885.38;5036993;28;45501;-70
2022/11/11 10:20:01;;;;;;;;;1.00;1.00;;;;;22.06;44.11;102889.72;5025475;28;46393;-70
2022/11/11 10:22:33;;;;;;;;;2.00;1.00;;;;;21.98;44.30;102873.59;5035533;28;46265;-69
2022/11/11 10:25:19;;;;;;;;;1.33;1.00;;;;;22.11;44.35;102886.66;5033182;28;45415;-69
2022/11/11 10:27:47;;;;;;;;;2.00;2.00;;;;;22.14;44.60;102895.22;5030816;28;45368;-69
2022/11/11 10:30:18;;;;;;;;;2.33;2.00;;;;;22.14;44.21;102889.91;5031494;28;45541;-69
2022/11/11 10:32:52;;;;;;;;;2.00;1.33;;;;;22.05;44.72;102885.38;5031113;28;45426;-69
2022/11/11 10:35:29;;;;;;;;;1.00;1.00;;;;;22.18;44.25;102893.13;5030860;28;45294;-70
2022/11/11 10:38:11;;;;;;;;;3.67;1.00;;;;;22.18;44.88;102907.22;5036241;28;45434;-69
2022/11/11 10:40:51;;;;;;;;;1.00;1.00;;;;;22.16;44.28;102897.72;5034502;28;45330;-70
2022/11/11 10:43:23;;;;;;;;;1.00;1.00;;;;;22.17;44.48;102908.19;5034197;28;45616;-70
2022/11/11 10:46:10;;;;;;;;;3.00;2.00;;;;;22.17;44.86;102904.72;5016601;28;45432;-70
2022/11/11 10:49:05;;;;;;;;;3.00;2.00;;;;;22.17;44.96;102900.22;5024049;28;45477;-70
2022/11/11 10:51:37;;;;;;;;;3.00;3.00;;;;;22.09;44.36;102884.16;5028313;28;46935;-70
2022/11/11 10:54:06;;;;;;;;;3.00;2.00;;;;;22.18;44.71;102903.72;5028230;28;45523;-70
2022/11/11 10:56:42;;;;;;;;;2.00;2.00;;;;;22.18;44.86;102911.66;5031563;28;45391;-71
2022/11/11 10:59:25;;;;;;;;;1.00;1.00;;;;;22.18;44.31;102907.22;5023546;28;45514;-69
2022/11/11 11:02:00;;;;;;;;;4.00;3.33;;;;;22.15;43.53;102899.50;5026765;28;48494;-71
2022/11/11 11:04:32;;;;;;;;;3.00;1.00;;;;;22.09;43.04;102892.09;5023604;28;45401;-71
2022/11/11 11:07:02;;;;;;;;;5.00;5.00;;;;;21.95;41.28;102886.16;5016312;28;45455;-69
2022/11/11 11:09:27;;;;;;;;;5.00;3.00;;;;;21.85;42.23;102883.41;5016288;28;45580;-69
2022/11/11 11:12:00;;;;;;;;;3.00;3.00;;;;;21.81;43.53;102878.47;5020939;28;46112;-69
2022/11/11 11:14:31;;;;;;;;;3.00;3.00;;;;;21.88;43.94;102886.81;5021405;28;45436;-69
2022/11/11 11:17:00;;;;;;;;;2.00;2.00;;;;;21.92;43.90;102890.88;5020156;28;45342;-69
2022/11/11 11:19:27;;;;;;;;;1.00;1.00;;;;;21.96;43.93;102879.06;5031070;28;45465;-69
2022/11/11 11:21:56;;;;;;;;;2.00;2.00;;;;;21.99;44.06;102875.31;5015469;28;47219;-69
2022/11/11 11:24:33;;;;;;;;;1.00;1.00;;;;;22.03;43.53;102885.50;5025497;28;45511;-69
2022/11/11 11:27:06;;;;;;;;;2.00;2.00;;;;;22.04;44.02;102883.69;5023399;28;45518;-71
2022/11/11 11:29:33;;;;;;;;;2.33;2.33;;;;;22.03;43.85;102876.72;5033679;28;45738;-71
2022/11/11 11:32:15;;;;;;;;;2.00;2.00;;;;;22.04;44.25;102878.41;5034440;28;46329;-71
2022/11/11 11:34:45;;;;;;;;;3.33;2.00;;;;;22.03;44.23;102877.56;5031067;28;46094;-70
2022/11/11 11:37:11;;;;;;;;;3.00;3.00;;;;;22.05;44.24;102874.75;5033498;28;45420;-71
2022/11/11 11:39:38;;;;;;;;;2.00;1.33;;;;;22.06;44.38;102871.16;5034136;28;45400;-71
2022/11/11 11:42:05;;;;;;;;;1.33;1.33;;;;;22.03;44.42;102863.47;5034025;28;46375;-70
2022/11/11 11:44:38;;;;;;;;;2.00;1.67;;;;;22.06;44.00;102868.50;5032079;28;45369;-71
2022/11/11 11:47:27;;;;;;;;;2.67;2.67;;;;;22.06;44.54;102852.59;5030296;28;45456;-71
2022/11/11 11:50:20;;;;;;;;;1.67;1.67;;;;;22.07;44.74;102859.56;5032823;28;45537;-71
2022/11/11 11:52:56;;;;;;;;;2.00;2.00;;;;;21.95;44.59;102838.44;5033215;28;46248;-71
2022/11/11 11:55:27;;;;;;;;;2.33;2.33;;;;;22.06;44.22;102860.56;5032562;28;45556;-71
2022/11/11 11:57:55;;;;;;;;;4.00;2.67;;;;;22.10;44.42;102861.09;5033558;28;45408;-71
2022/11/11 12:00:24;;;;;;;;;3.33;2.00;;;;;22.00;44.64;102837.22;5034690;28;45250;-71
2022/11/11 12:03:23;;;;;;;;;1.00;1.00;;;;;22.12;44.79;102851.25;5034796;28;46095;-71
2022/11/11 12:06:10;;;;;;;;;2.00;2.00;;;;;22.11;44.75;102838.94;5027626;28;47698;-71
2022/11/11 12:09:18;;;;;;;;;2.00;2.00;;;;;22.14;44.88;102843.97;5030848;28;45285;-71
2022/11/11 12:12:14;;;;;;;;;2.00;2.00;;;;;22.15;45.15;102829.75;5031614;28;45380;-72
2022/11/11 12:14:51;;;;;;;;;3.00;3.00;;;;;22.17;44.71;102833.94;5024603;28;47187;-71
2022/11/11 12:17:41;;;;;;;;;1.00;1.00;;;;;22.18;44.94;102832.97;5039109;28;45563;-72
2022/11/11 12:20:35;;;;;;;;;2.00;2.00;;;;;22.18;44.81;102835.63;5034759;28;45361;-72
2022/11/11 12:23:12;;;;;;;;;3.33;2.00;;;;;22.23;44.96;102842.34;5042164;28;45557;-72
2022/11/11 12:26:01;;;;;;;;;2.67;2.67;;;;;22.22;44.34;102833.56;5033201;28;45438;-73
2022/11/11 12:28:47;;;;;;;;;2.00;2.00;;;;;22.24;44.89;102833.41;5032084;28;45266;-73
2022/11/11 12:31:12;;;;;;;;;2.00;2.00;;;;;22.25;43.94;102835.94;5034659;28;45418;-73
2022/11/11 12:34:00;;;;;;;;;1.67;1.67;;;;;22.26;44.67;102832.31;5034458;28;45521;-73
2022/11/11 12:36:39;;;;;;;;;2.00;2.00;;;;;22.28;44.12;102825.06;5028155;28;46663;-73
2022/11/11 12:39:41;;;;;;;;;1.33;1.33;;;;;22.29;44.58;102825.91;5030488;28;45368;-73
2022/11/11 12:42:15;;;;;;;;;3.00;2.00;;;;;22.31;44.74;102818.66;5032965;28;45485;-73
2022/11/11 12:45:13;;;;;;;;;2.00;2.00;;;;;22.32;44.22;102807.09;5045162;28;45501;-72
2022/11/11 12:48:02;;;;;;;;;2.00;2.00;;;;;22.33;44.27;102799.97;4973273;28;46150;-73
2022/11/11 12:50:48;;;;;;;;;0.33;0.33;;;;;22.34;44.54;102789.22;4972893;28;45403;-73
2022/11/11 12:53:25;;;;;;;;;2.33;2.00;;;;;22.36;44.62;102799.69;4974060;28;45487;-72
2022/11/11 12:55:51;;;;;;;;;1.00;1.00;;;;;22.35;44.96;102804.13;4970698;28;45668;-72